sensor_id;sensor_type;location;lat;lon;timestamp;pressure;altitude;pressure_sealevel;temperature;humidity
8703;BME280;9002;42.708;23.186;2024-03-07T00:00:18;94801.41;;;10.69;67.80
8703;BME280;9002;42.708;23.186;2024-03-07T00:02:46;94790.63;;;10.11;68.79
8703;BME280;9002;42.708;23.186;2024-03-07T00:05:13;94788.22;;;10.05;68.91
8703;BME280;9002;42.708;23.186;2024-03-07T00:07:41;94803.28;;;10.08;69.45
8703;BME280;9002;42.708;23.186;2024-03-07T00:10:10;94796.34;;;9.75;71.61
8703;BME280;9002;42.708;23.186;2024-03-07T00:12:38;94802.22;;;9.87;70.94
8703;BME280;9002;42.708;23.186;2024-03-07T00:15:07;94778.47;;;10.12;69.62
8703;BME280;9002;42.708;23.186;2024-03-07T00:17:34;94785.44;;;9.89;71.26
8703;BME280;9002;42.708;23.186;2024-03-07T00:20:01;94784.31;;;9.13;72.96
8703;BME280;9002;42.708;23.186;2024-03-07T00:22:29;94790.13;;;9.37;73.15
8703;BME280;9002;42.708;23.186;2024-03-07T00:24:57;94782.34;;;9.37;73.53
8703;BME280;9002;42.708;23.186;2024-03-07T00:27:27;94777.97;;;9.37;73.98
8703;BME280;9002;42.708;23.186;2024-03-07T00:29:54;94777.94;;;9.04;74.58
8703;BME280;9002;42.708;23.186;2024-03-07T00:32:23;94774.75;;;9.14;74.42
8703;BME280;9002;42.708;23.186;2024-03-07T00:34:50;94779.53;;;9.22;72.40
8703;BME280;9002;42.708;23.186;2024-03-07T00:37:17;94763.81;;;8.78;74.75
8703;BME280;9002;42.708;23.186;2024-03-07T00:39:44;94765.75;;;8.71;74.65
8703;BME280;9002;42.708;23.186;2024-03-07T00:42:11;94779.28;;;9.23;73.35
8703;BME280;9002;42.708;23.186;2024-03-07T00:44:40;94782.41;;;9.42;72.90
8703;BME280;9002;42.708;23.186;2024-03-07T00:47:07;94778.81;;;9.43;71.86
8703;BME280;9002;42.708;23.186;2024-03-07T00:49:34;94775.44;;;9.59;71.52
8703;BME280;9002;42.708;23.186;2024-03-07T00:52:01;94779.00;;;9.53;71.33
8703;BME280;9002;42.708;23.186;2024-03-07T00:54:29;94758.53;;;9.52;70.90
8703;BME280;9002;42.708;23.186;2024-03-07T00:56:56;94756.13;;;9.84;69.43
8703;BME280;9002;42.708;23.186;2024-03-07T00:59:23;94755.00;;;9.96;69.70
8703;BME280;9002;42.708;23.186;2024-03-07T01:01:51;94747.38;;;9.68;69.45
8703;BME280;9002;42.708;23.186;2024-03-07T01:04:18;94751.94;;;9.61;71.38
8703;BME280;9002;42.708;23.186;2024-03-07T01:06:45;94756.63;;;9.64;69.53
8703;BME280;9002;42.708;23.186;2024-03-07T01:09:12;94743.06;;;9.74;70.28
8703;BME280;9002;42.708;23.186;2024-03-07T01:11:42;94750.94;;;9.62;70.21
8703;BME280;9002;42.708;23.186;2024-03-07T01:14:10;94734.72;;;9.16;71.91
8703;BME280;9002;42.708;23.186;2024-03-07T01:16:37;94744.66;;;9.24;72.84
8703;BME280;9002;42.708;23.186;2024-03-07T01:19:05;94731.22;;;9.39;71.44
8703;BME280;9002;42.708;23.186;2024-03-07T01:21:32;94743.50;;;9.49;70.71
8703;BME280;9002;42.708;23.186;2024-03-07T01:23:59;94736.91;;;9.24;71.63
8703;BME280;9002;42.708;23.186;2024-03-07T01:26:27;94747.72;;;9.04;72.65
8703;BME280;9002;42.708;23.186;2024-03-07T01:28:54;94754.22;;;9.41;70.59
8703;BME280;9002;42.708;23.186;2024-03-07T01:31:22;94739.44;;;9.36;71.34
8703;BME280;9002;42.708;23.186;2024-03-07T01:33:49;94739.44;;;9.53;71.08
8703;BME280;9002;42.708;23.186;2024-03-07T01:36:18;94738.09;;;9.33;71.23
8703;BME280;9002;42.708;23.186;2024-03-07T01:38:45;94726.03;;;9.22;69.97
8703;BME280;9002;42.708;23.186;2024-03-07T01:41:12;94727.06;;;9.04;71.99
8703;BME280;9002;42.708;23.186;2024-03-07T01:43:39;94722.13;;;9.03;71.78
8703;BME280;9002;42.708;23.186;2024-03-07T01:46:06;94722.84;;;8.81;73.52
8703;BME280;9002;42.708;23.186;2024-03-07T01:48:34;94730.97;;;8.73;73.57
8703;BME280;9002;42.708;23.186;2024-03-07T01:51:01;94713.41;;;8.59;73.69
8703;BME280;9002;42.708;23.186;2024-03-07T01:53:30;94737.16;;;9.23;71.79
8703;BME280;9002;42.708;23.186;2024-03-07T01:55:59;94735.19;;;9.47;70.55
8703;BME280;9002;42.708;23.186;2024-03-07T01:58:29;94739.25;;;9.59;69.21
8703;BME280;9002;42.708;23.186;2024-03-07T02:00:59;94754.81;;;9.81;68.63
8703;BME280;9002;42.708;23.186;2024-03-07T02:03:26;94750.72;;;9.85;68.62
8703;BME280;9002;42.708;23.186;2024-03-07T02:05:53;94736.00;;;10.08;68.25
8703;BME280;9002;42.708;23.186;2024-03-07T02:08:20;94739.16;;;9.71;69.23
8703;BME280;9002;42.708;23.186;2024-03-07T02:10:49;94735.81;;;9.54;69.69
8703;BME280;9002;42.708;23.186;2024-03-07T02:13:16;94745.97;;;9.60;69.90
8703;BME280;9002;42.708;23.186;2024-03-07T02:15:43;94718.53;;;9.37;69.65
8703;BME280;9002;42.708;23.186;2024-03-07T02:18:10;94730.56;;;9.49;69.21
8703;BME280;9002;42.708;23.186;2024-03-07T02:20:37;94736.53;;;9.32;69.99
8703;BME280;9002;42.708;23.186;2024-03-07T02:23:05;94738.97;;;9.22;70.30
8703;BME280;9002;42.708;23.186;2024-03-07T02:25:32;94730.66;;;8.87;71.29
8703;BME280;9002;42.708;23.186;2024-03-07T02:28:04;94713.13;;;8.89;72.18
8703;BME280;9002;42.708;23.186;2024-03-07T02:30:31;94724.09;;;8.96;72.14
8703;BME280;9002;42.708;23.186;2024-03-07T02:32:58;94700.78;;;8.91;71.17
8703;BME280;9002;42.708;23.186;2024-03-07T02:35:33;94721.66;;;9.06;71.70
8703;BME280;9002;42.708;23.186;2024-03-07T02:38:01;94723.59;;;8.65;69.81
8703;BME280;9002;42.708;23.186;2024-03-07T02:40:30;94743.50;;;8.98;69.51
8703;BME280;9002;42.708;23.186;2024-03-07T02:45:27;94745.75;;;8.95;67.06
8703;BME280;9002;42.708;23.186;2024-03-07T02:47:55;94750.88;;;9.23;66.78
8703;BME280;9002;42.708;23.186;2024-03-07T02:50:22;94745.53;;;9.47;66.38
8703;BME280;9002;42.708;23.186;2024-03-07T02:52:50;94734.41;;;8.96;66.69
8703;BME280;9002;42.708;23.186;2024-03-07T02:55:18;94754.63;;;9.16;66.84
8703;BME280;9002;42.708;23.186;2024-03-07T02:57:47;94749.50;;;8.87;67.48
8703;BME280;9002;42.708;23.186;2024-03-07T03:00:14;94741.75;;;8.87;66.62
8703;BME280;9002;42.708;23.186;2024-03-07T03:02:47;94759.63;;;8.60;66.54
8703;BME280;9002;42.708;23.186;2024-03-07T03:05:14;94762.75;;;8.91;66.56
8703;BME280;9002;42.708;23.186;2024-03-07T03:07:42;94763.31;;;8.93;66.70
8703;BME280;9002;42.708;23.186;2024-03-07T03:10:18;94729.06;;;8.69;67.34
8703;BME280;9002;42.708;23.186;2024-03-07T03:12:47;94746.81;;;8.65;68.10
8703;BME280;9002;42.708;23.186;2024-03-07T03:15:14;94748.41;;;8.83;67.61
8703;BME280;9002;42.708;23.186;2024-03-07T03:17:43;94754.13;;;8.85;67.63
8703;BME280;9002;42.708;23.186;2024-03-07T03:20:10;94757.22;;;8.70;67.92
8703;BME280;9002;42.708;23.186;2024-03-07T03:22:50;94762.69;;;8.57;69.07
8703;BME280;9002;42.708;23.186;2024-03-07T03:25:18;94763.78;;;8.61;68.79
8703;BME280;9002;42.708;23.186;2024-03-07T03:27:47;94754.81;;;8.80;68.87
8703;BME280;9002;42.708;23.186;2024-03-07T03:30:15;94765.09;;;8.47;69.85
8703;BME280;9002;42.708;23.186;2024-03-07T03:32:45;94755.19;;;8.44;70.45
8703;BME280;9002;42.708;23.186;2024-03-07T03:35:13;94751.63;;;8.33;70.10
8703;BME280;9002;42.708;23.186;2024-03-07T03:37:41;94778.78;;;8.76;69.56
8703;BME280;9002;42.708;23.186;2024-03-07T03:40:09;94789.53;;;9.01;68.30
8703;BME280;9002;42.708;23.186;2024-03-07T03:42:37;94749.72;;;8.69;69.60
8703;BME280;9002;42.708;23.186;2024-03-07T03:45:07;94761.47;;;8.76;68.98
8703;BME280;9002;42.708;23.186;2024-03-07T03:47:37;94739.16;;;8.42;70.40
8703;BME280;9002;42.708;23.186;2024-03-07T03:50:05;94751.91;;;8.20;70.54
8703;BME280;9002;42.708;23.186;2024-03-07T03:52:33;94736.13;;;8.33;70.32
8703;BME280;9002;42.708;23.186;2024-03-07T03:55:00;94745.28;;;8.36;70.63
8703;BME280;9002;42.708;23.186;2024-03-07T03:57:28;94741.34;;;8.21;71.11
8703;BME280;9002;42.708;23.186;2024-03-07T03:59:56;94736.22;;;7.98;71.69
8703;BME280;9002;42.708;23.186;2024-03-07T04:02:24;94737.44;;;8.07;71.47
8703;BME280;9002;42.708;23.186;2024-03-07T04:04:52;94747.41;;;8.27;71.17
8703;BME280;9002;42.708;23.186;2024-03-07T04:07:19;94749.78;;;8.05;71.65
8703;BME280;9002;42.708;23.186;2024-03-07T04:09:47;94744.34;;;8.30;70.50
8703;BME280;9002;42.708;23.186;2024-03-07T04:12:14;94736.59;;;8.02;70.62
8703;BME280;9002;42.708;23.186;2024-03-07T04:14:42;94730.41;;;8.03;69.90
8703;BME280;9002;42.708;23.186;2024-03-07T04:17:09;94746.31;;;8.00;70.29
8703;BME280;9002;42.708;23.186;2024-03-07T04:19:39;94758.00;;;8.42;68.71
8703;BME280;9002;42.708;23.186;2024-03-07T04:22:07;94760.75;;;8.36;69.82
8703;BME280;9002;42.708;23.186;2024-03-07T04:24:35;94756.13;;;8.66;69.09
8703;BME280;9002;42.708;23.186;2024-03-07T04:27:03;94764.25;;;8.58;68.38
8703;BME280;9002;42.708;23.186;2024-03-07T04:29:30;94752.25;;;8.52;68.83
8703;BME280;9002;42.708;23.186;2024-03-07T04:31:57;94751.84;;;8.32;68.71
8703;BME280;9002;42.708;23.186;2024-03-07T04:34:24;94754.06;;;8.51;68.28
8703;BME280;9002;42.708;23.186;2024-03-07T04:36:53;94747.28;;;8.62;66.50
8703;BME280;9002;42.708;23.186;2024-03-07T04:39:20;94756.41;;;8.81;66.22
8703;BME280;9002;42.708;23.186;2024-03-07T04:41:55;94762.31;;;8.65;66.52
8703;BME280;9002;42.708;23.186;2024-03-07T04:44:22;94755.41;;;7.90;67.92
8703;BME280;9002;42.708;23.186;2024-03-07T04:46:50;94757.16;;;7.73;68.60
8703;BME280;9002;42.708;23.186;2024-03-07T04:49:21;94742.66;;;7.72;68.70
8703;BME280;9002;42.708;23.186;2024-03-07T04:51:49;94758.34;;;7.94;67.69
8703;BME280;9002;42.708;23.186;2024-03-07T04:54:17;94760.59;;;7.79;67.52
8703;BME280;9002;42.708;23.186;2024-03-07T04:56:44;94768.31;;;7.90;67.25
8703;BME280;9002;42.708;23.186;2024-03-07T04:59:11;94767.88;;;7.93;68.00
8703;BME280;9002;42.708;23.186;2024-03-07T05:01:38;94774.50;;;8.01;66.92
8703;BME280;9002;42.708;23.186;2024-03-07T05:04:06;94761.00;;;8.11;67.54
8703;BME280;9002;42.708;23.186;2024-03-07T05:06:33;94775.69;;;8.10;68.61
8703;BME280;9002;42.708;23.186;2024-03-07T05:09:00;94782.19;;;8.36;67.52
8703;BME280;9002;42.708;23.186;2024-03-07T05:11:30;94781.66;;;7.99;68.58
8703;BME280;9002;42.708;23.186;2024-03-07T05:13:58;94743.22;;;7.27;69.90
8703;BME280;9002;42.708;23.186;2024-03-07T05:16:27;94781.69;;;7.40;70.11
8703;BME280;9002;42.708;23.186;2024-03-07T05:18:55;94776.75;;;7.62;68.88
8703;BME280;9002;42.708;23.186;2024-03-07T05:21:23;94766.13;;;7.47;69.27
8703;BME280;9002;42.708;23.186;2024-03-07T05:24:03;94783.59;;;7.68;69.17
8703;BME280;9002;42.708;23.186;2024-03-07T05:26:32;94785.13;;;7.81;68.46
8703;BME280;9002;42.708;23.186;2024-03-07T05:29:04;94782.13;;;7.61;69.25
8703;BME280;9002;42.708;23.186;2024-03-07T05:31:33;94796.16;;;7.77;68.76
8703;BME280;9002;42.708;23.186;2024-03-07T05:34:01;94792.44;;;7.49;67.88
8703;BME280;9002;42.708;23.186;2024-03-07T05:36:30;94800.97;;;7.38;69.08
8703;BME280;9002;42.708;23.186;2024-03-07T05:39:01;94786.03;;;7.63;68.29
8703;BME280;9002;42.708;23.186;2024-03-07T05:41:54;94705.72;;;7.08;69.67
8703;BME280;9002;42.708;23.186;2024-03-07T05:44:30;94734.28;;;7.18;67.80
8703;BME280;9002;42.708;23.186;2024-03-07T05:47:01;94791.22;;;7.40;68.25
8703;BME280;9002;42.708;23.186;2024-03-07T05:49:29;94795.03;;;7.37;68.51
8703;BME280;9002;42.708;23.186;2024-03-07T05:51:56;94797.38;;;7.39;68.70
8703;BME280;9002;42.708;23.186;2024-03-07T05:54:23;94789.50;;;7.46;68.49
8703;BME280;9002;42.708;23.186;2024-03-07T05:56:51;94796.72;;;7.55;68.12
8703;BME280;9002;42.708;23.186;2024-03-07T05:59:18;94809.00;;;7.42;68.52
8703;BME280;9002;42.708;23.186;2024-03-07T06:01:46;94791.88;;;7.71;67.62
8703;BME280;9002;42.708;23.186;2024-03-07T06:04:13;94806.34;;;7.83;66.49
8703;BME280;9002;42.708;23.186;2024-03-07T06:06:41;94811.16;;;7.80;66.98
8703;BME280;9002;42.708;23.186;2024-03-07T06:09:09;94807.78;;;8.03;66.91
8703;BME280;9002;42.708;23.186;2024-03-07T06:11:36;94812.06;;;7.74;67.05
8703;BME280;9002;42.708;23.186;2024-03-07T06:14:06;94805.22;;;7.91;66.27
8703;BME280;9002;42.708;23.186;2024-03-07T06:16:35;94787.06;;;7.62;66.36
8703;BME280;9002;42.708;23.186;2024-03-07T06:19:04;94811.84;;;7.87;66.49
8703;BME280;9002;42.708;23.186;2024-03-07T06:21:33;94817.44;;;7.95;65.74
8703;BME280;9002;42.708;23.186;2024-03-07T06:24:01;94833.78;;;7.89;64.43
8703;BME280;9002;42.708;23.186;2024-03-07T06:26:31;94845.69;;;8.02;65.94
8703;BME280;9002;42.708;23.186;2024-03-07T06:29:13;94845.25;;;7.93;67.21
8703;BME280;9002;42.708;23.186;2024-03-07T06:31:41;94824.63;;;7.82;66.26
8703;BME280;9002;42.708;23.186;2024-03-07T06:34:08;94834.69;;;7.60;67.90
8703;BME280;9002;42.708;23.186;2024-03-07T06:36:35;94839.16;;;7.53;67.41
8703;BME280;9002;42.708;23.186;2024-03-07T06:39:03;94810.25;;;7.62;66.56
8703;BME280;9002;42.708;23.186;2024-03-07T06:41:31;94822.81;;;7.59;67.85
8703;BME280;9002;42.708;23.186;2024-03-07T06:43:58;94799.16;;;7.38;68.78
8703;BME280;9002;42.708;23.186;2024-03-07T06:46:26;94817.88;;;7.57;67.84
8703;BME280;9002;42.708;23.186;2024-03-07T06:48:53;94833.69;;;7.73;66.68
8703;BME280;9002;42.708;23.186;2024-03-07T06:51:21;94832.38;;;7.82;65.68
8703;BME280;9002;42.708;23.186;2024-03-07T06:53:48;94841.97;;;7.98;65.69
8703;BME280;9002;42.708;23.186;2024-03-07T06:56:16;94843.13;;;8.02;65.79
8703;BME280;9002;42.708;23.186;2024-03-07T06:58:43;94841.97;;;7.98;66.47
8703;BME280;9002;42.708;23.186;2024-03-07T07:01:12;94835.91;;;8.28;65.70
8703;BME280;9002;42.708;23.186;2024-03-07T07:03:42;94840.47;;;8.49;63.95
8703;BME280;9002;42.708;23.186;2024-03-07T07:06:10;94841.09;;;7.92;66.78
8703;BME280;9002;42.708;23.186;2024-03-07T07:08:37;94833.25;;;7.87;66.88
8703;BME280;9002;42.708;23.186;2024-03-07T07:11:04;94821.47;;;7.56;68.02
8703;BME280;9002;42.708;23.186;2024-03-07T07:13:31;94828.00;;;7.82;67.46
8703;BME280;9002;42.708;23.186;2024-03-07T07:15:59;94817.97;;;7.97;66.93
8703;BME280;9002;42.708;23.186;2024-03-07T07:18:26;94805.91;;;7.75;67.04
8703;BME280;9002;42.708;23.186;2024-03-07T07:20:55;94814.31;;;7.93;67.73
8703;BME280;9002;42.708;23.186;2024-03-07T07:23:22;94826.50;;;7.98;67.25
8703;BME280;9002;42.708;23.186;2024-03-07T07:28:35;94831.31;;;8.06;66.81
8703;BME280;9002;42.708;23.186;2024-03-07T07:31:03;94820.25;;;7.94;66.32
8703;BME280;9002;42.708;23.186;2024-03-07T07:33:30;94819.47;;;7.93;67.09
8703;BME280;9002;42.708;23.186;2024-03-07T07:35:59;94814.84;;;8.07;66.43
8703;BME280;9002;42.708;23.186;2024-03-07T07:38:27;94819.75;;;8.20;65.97
8703;BME280;9002;42.708;23.186;2024-03-07T07:40:53;94817.63;;;8.29;64.67
8703;BME280;9002;42.708;23.186;2024-03-07T07:43:20;94794.78;;;7.97;66.39
8703;BME280;9002;42.708;23.186;2024-03-07T07:45:48;94816.44;;;7.85;67.18
8703;BME280;9002;42.708;23.186;2024-03-07T07:48:15;94807.13;;;7.95;66.14
8703;BME280;9002;42.708;23.186;2024-03-07T07:50:42;94810.00;;;8.22;65.82
8703;BME280;9002;42.708;23.186;2024-03-07T07:53:10;94808.44;;;7.98;67.22
8703;BME280;9002;42.708;23.186;2024-03-07T07:55:37;94809.69;;;7.95;66.28
8703;BME280;9002;42.708;23.186;2024-03-07T07:58:05;94807.88;;;8.08;66.41
8703;BME280;9002;42.708;23.186;2024-03-07T08:00:36;94826.38;;;8.28;65.39
8703;BME280;9002;42.708;23.186;2024-03-07T08:03:04;94804.31;;;7.97;66.12
8703;BME280;9002;42.708;23.186;2024-03-07T08:05:33;94817.09;;;8.04;66.25
8703;BME280;9002;42.708;23.186;2024-03-07T08:08:02;94823.88;;;8.33;66.11
8703;BME280;9002;42.708;23.186;2024-03-07T08:10:34;94820.19;;;8.41;64.99
8703;BME280;9002;42.708;23.186;2024-03-07T08:13:02;94812.56;;;8.46;64.58
8703;BME280;9002;42.708;23.186;2024-03-07T08:15:31;94827.69;;;8.54;64.99
8703;BME280;9002;42.708;23.186;2024-03-07T08:17:58;94825.28;;;8.64;64.27
8703;BME280;9002;42.708;23.186;2024-03-07T08:20:27;94826.13;;;8.81;63.09
8703;BME280;9002;42.708;23.186;2024-03-07T08:22:54;94843.09;;;9.06;62.09
8703;BME280;9002;42.708;23.186;2024-03-07T08:25:22;94845.41;;;8.91;62.37
8703;BME280;9002;42.708;23.186;2024-03-07T08:27:52;94831.06;;;8.83;62.14
8703;BME280;9002;42.708;23.186;2024-03-07T08:30:20;94855.63;;;9.14;60.50
8703;BME280;9002;42.708;23.186;2024-03-07T08:32:48;94850.28;;;9.04;61.15
8703;BME280;9002;42.708;23.186;2024-03-07T08:35:17;94863.47;;;9.19;61.85
8703;BME280;9002;42.708;23.186;2024-03-07T08:37:45;94857.03;;;9.05;63.40
8703;BME280;9002;42.708;23.186;2024-03-07T08:40:15;94870.69;;;9.17;63.18
8703;BME280;9002;42.708;23.186;2024-03-07T08:42:46;94851.97;;;8.81;64.46
8703;BME280;9002;42.708;23.186;2024-03-07T08:45:15;94863.16;;;8.87;63.75
8703;BME280;9002;42.708;23.186;2024-03-07T08:47:45;94864.38;;;8.44;65.87
8703;BME280;9002;42.708;23.186;2024-03-07T08:50:13;94878.16;;;8.73;64.59
8703;BME280;9002;42.708;23.186;2024-03-07T08:52:40;94877.47;;;8.66;63.40
8703;BME280;9002;42.708;23.186;2024-03-07T08:55:08;94874.56;;;9.03;64.12
8703;BME280;9002;42.708;23.186;2024-03-07T08:57:37;94873.22;;;9.00;63.33
8703;BME280;9002;42.708;23.186;2024-03-07T09:00:06;94876.78;;;9.11;63.48
8703;BME280;9002;42.708;23.186;2024-03-07T09:02:37;94879.78;;;8.91;63.31
8703;BME280;9002;42.708;23.186;2024-03-07T09:05:06;94880.38;;;8.81;64.02
8703;BME280;9002;42.708;23.186;2024-03-07T09:07:36;94872.69;;;8.87;61.83
8703;BME280;9002;42.708;23.186;2024-03-07T09:10:03;94880.63;;;8.68;64.89
8703;BME280;9002;42.708;23.186;2024-03-07T09:12:30;94884.69;;;8.64;64.96
8703;BME280;9002;42.708;23.186;2024-03-07T09:14:57;94876.16;;;8.64;64.29
8703;BME280;9002;42.708;23.186;2024-03-07T09:17:24;94881.56;;;8.91;63.42
8703;BME280;9002;42.708;23.186;2024-03-07T09:19:52;94874.34;;;8.52;64.87
8703;BME280;9002;42.708;23.186;2024-03-07T09:22:19;94869.78;;;8.55;64.58
8703;BME280;9002;42.708;23.186;2024-03-07T09:24:46;94878.03;;;8.68;64.54
8703;BME280;9002;42.708;23.186;2024-03-07T09:27:13;94866.06;;;8.50;64.31
8703;BME280;9002;42.708;23.186;2024-03-07T09:29:40;94882.00;;;8.99;64.53
8703;BME280;9002;42.708;23.186;2024-03-07T09:32:08;94890.41;;;8.95;63.48
8703;BME280;9002;42.708;23.186;2024-03-07T09:34:36;94882.00;;;8.88;63.35
8703;BME280;9002;42.708;23.186;2024-03-07T09:37:04;94887.66;;;9.13;62.35
8703;BME280;9002;42.708;23.186;2024-03-07T09:39:32;94885.78;;;9.08;63.18
8703;BME280;9002;42.708;23.186;2024-03-07T09:42:00;94884.75;;;9.09;63.75
8703;BME280;9002;42.708;23.186;2024-03-07T09:44:28;94884.25;;;8.96;63.43
8703;BME280;9002;42.708;23.186;2024-03-07T09:46:56;94895.44;;;9.30;62.47
8703;BME280;9002;42.708;23.186;2024-03-07T09:49:24;94883.31;;;9.02;62.49
8703;BME280;9002;42.708;23.186;2024-03-07T09:51:52;94896.78;;;9.32;63.17
8703;BME280;9002;42.708;23.186;2024-03-07T09:54:23;94889.53;;;9.46;63.13
8703;BME280;9002;42.708;23.186;2024-03-07T09:56:53;94900.84;;;9.74;61.99
8703;BME280;9002;42.708;23.186;2024-03-07T09:59:20;94885.53;;;9.55;61.70
8703;BME280;9002;42.708;23.186;2024-03-07T10:01:55;94863.56;;;8.96;65.54
8703;BME280;9002;42.708;23.186;2024-03-07T10:04:38;94859.00;;;8.86;66.28
8703;BME280;9002;42.708;23.186;2024-03-07T10:07:13;94865.31;;;8.78;66.21
8703;BME280;9002;42.708;23.186;2024-03-07T10:09:46;94816.97;;;8.74;67.77
8703;BME280;9002;42.708;23.186;2024-03-07T10:12:34;94817.00;;;8.91;66.76
8703;BME280;9002;42.708;23.186;2024-03-07T10:15:15;94821.41;;;9.07;64.95
8703;BME280;9002;42.708;23.186;2024-03-07T10:18:37;94853.69;;;9.21;66.08
8703;BME280;9002;42.708;23.186;2024-03-07T10:21:43;94780.13;;;8.95;64.83
8703;BME280;9002;42.708;23.186;2024-03-07T10:24:16;94833.03;;;9.38;63.69
8703;BME280;9002;42.708;23.186;2024-03-07T10:26:58;94866.34;;;9.85;62.51
8703;BME280;9002;42.708;23.186;2024-03-07T10:29:30;94848.22;;;9.68;63.16
8703;BME280;9002;42.708;23.186;2024-03-07T10:32:00;94860.53;;;9.78;62.66
8703;BME280;9002;42.708;23.186;2024-03-07T10:34:40;94812.75;;;9.30;63.39
8703;BME280;9002;42.708;23.186;2024-03-07T10:37:19;94853.16;;;9.70;61.41
8703;BME280;9002;42.708;23.186;2024-03-07T10:39:57;94807.72;;;9.57;63.78
8703;BME280;9002;42.708;23.186;2024-03-07T10:42:31;94764.19;;;9.32;62.63
8703;BME280;9002;42.708;23.186;2024-03-07T10:45:04;94765.13;;;9.09;62.26
8703;BME280;9002;42.708;23.186;2024-03-07T10:47:37;94852.38;;;9.69;61.00
8703;BME280;9002;42.708;23.186;2024-03-07T10:50:16;94861.56;;;9.77;62.25
8703;BME280;9002;42.708;23.186;2024-03-07T10:52:52;94830.28;;;9.61;60.54
8703;BME280;9002;42.708;23.186;2024-03-07T10:55:27;94853.25;;;9.58;61.96
8703;BME280;9002;42.708;23.186;2024-03-07T10:58:09;94829.34;;;9.51;62.61
8703;BME280;9002;42.708;23.186;2024-03-07T11:00:43;94845.66;;;9.51;61.30
8703;BME280;9002;42.708;23.186;2024-03-07T11:03:13;94845.59;;;9.63;61.91
8703;BME280;9002;42.708;23.186;2024-03-07T11:05:41;94843.06;;;9.68;61.80
8703;BME280;9002;42.708;23.186;2024-03-07T11:08:10;94841.81;;;9.54;63.16
8703;BME280;9002;42.708;23.186;2024-03-07T11:10:38;94831.78;;;9.57;61.23
8703;BME280;9002;42.708;23.186;2024-03-07T11:13:08;94837.84;;;9.63;63.18
8703;BME280;9002;42.708;23.186;2024-03-07T11:15:37;94831.25;;;9.72;61.07
8703;BME280;9002;42.708;23.186;2024-03-07T11:18:06;94817.06;;;9.58;61.95
8703;BME280;9002;42.708;23.186;2024-03-07T11:20:37;94811.09;;;9.57;62.03
8703;BME280;9002;42.708;23.186;2024-03-07T11:23:27;94831.63;;;9.64;61.32
8703;BME280;9002;42.708;23.186;2024-03-07T11:25:55;94832.50;;;9.53;61.19
8703;BME280;9002;42.708;23.186;2024-03-07T11:28:30;94834.63;;;9.56;61.14
8703;BME280;9002;42.708;23.186;2024-03-07T11:31:12;94824.97;;;9.51;60.95
8703;BME280;9002;42.708;23.186;2024-03-07T11:33:39;94824.03;;;9.74;62.19
8703;BME280;9002;42.708;23.186;2024-03-07T11:36:07;94825.50;;;9.70;61.04
8703;BME280;9002;42.708;23.186;2024-03-07T11:38:35;94830.59;;;9.82;61.52
8703;BME280;9002;42.708;23.186;2024-03-07T11:41:04;94821.50;;;9.79;61.19
8703;BME280;9002;42.708;23.186;2024-03-07T11:43:33;94824.47;;;9.88;61.74
8703;BME280;9002;42.708;23.186;2024-03-07T11:46:00;94816.88;;;9.81;62.33
8703;BME280;9002;42.708;23.186;2024-03-07T11:48:28;94813.44;;;9.76;61.12
8703;BME280;9002;42.708;23.186;2024-03-07T11:50:56;94820.91;;;9.72;62.19
8703;BME280;9002;42.708;23.186;2024-03-07T11:53:23;94810.41;;;9.62;61.40
8703;BME280;9002;42.708;23.186;2024-03-07T11:55:50;94808.28;;;9.59;61.89
8703;BME280;9002;42.708;23.186;2024-03-07T11:58:20;94824.03;;;9.74;60.37
8703;BME280;9002;42.708;23.186;2024-03-07T12:00:49;94817.56;;;9.93;60.33
8703;BME280;9002;42.708;23.186;2024-03-07T12:03:18;94826.47;;;9.81;60.21
8703;BME280;9002;42.708;23.186;2024-03-07T12:05:47;94809.44;;;9.68;60.54
8703;BME280;9002;42.708;23.186;2024-03-07T12:08:14;94805.25;;;9.62;60.50
8703;BME280;9002;42.708;23.186;2024-03-07T12:10:42;94813.00;;;9.62;61.06
8703;BME280;9002;42.708;23.186;2024-03-07T12:13:10;94804.81;;;9.70;61.44
8703;BME280;9002;42.708;23.186;2024-03-07T12:15:39;94793.47;;;9.71;61.21
8703;BME280;9002;42.708;23.186;2024-03-07T12:18:09;94802.31;;;9.58;63.04
8703;BME280;9002;42.708;23.186;2024-03-07T12:20:36;94784.72;;;9.38;61.38
8703;BME280;9002;42.708;23.186;2024-03-07T12:23:04;94816.81;;;9.76;61.16
8703;BME280;9002;42.708;23.186;2024-03-07T12:25:33;94774.66;;;9.59;61.83
8703;BME280;9002;42.708;23.186;2024-03-07T12:28:06;94806.94;;;9.73;62.04
8703;BME280;9002;42.708;23.186;2024-03-07T12:30:47;94819.50;;;9.64;61.29
8703;BME280;9002;42.708;23.186;2024-03-07T12:33:18;94823.88;;;9.64;62.50
8703;BME280;9002;42.708;23.186;2024-03-07T12:35:46;94811.81;;;9.53;62.30
8703;BME280;9002;42.708;23.186;2024-03-07T12:38:15;94793.63;;;9.48;61.53
8703;BME280;9002;42.708;23.186;2024-03-07T12:40:43;94806.66;;;9.53;62.59
8703;BME280;9002;42.708;23.186;2024-03-07T12:43:16;94811.97;;;9.29;62.67
8703;BME280;9002;42.708;23.186;2024-03-07T12:45:45;94805.22;;;9.12;63.32
8703;BME280;9002;42.708;23.186;2024-03-07T12:48:12;94809.72;;;9.04;63.96
8703;BME280;9002;42.708;23.186;2024-03-07T12:50:41;94800.75;;;9.24;63.73
8703;BME280;9002;42.708;23.186;2024-03-07T12:53:08;94807.72;;;9.23;64.05
8703;BME280;9002;42.708;23.186;2024-03-07T12:55:38;94801.94;;;9.33;61.92
8703;BME280;9002;42.708;23.186;2024-03-07T12:58:07;94811.19;;;9.46;62.50
8703;BME280;9002;42.708;23.186;2024-03-07T13:00:35;94808.59;;;9.46;60.70
8703;BME280;9002;42.708;23.186;2024-03-07T13:03:05;94801.16;;;9.32;61.77
8703;BME280;9002;42.708;23.186;2024-03-07T13:05:32;94802.66;;;9.45;62.18
8703;BME280;9002;42.708;23.186;2024-03-07T13:07:59;94798.16;;;9.24;62.41
8703;BME280;9002;42.708;23.186;2024-03-07T13:10:28;94804.97;;;9.13;62.37
8703;BME280;9002;42.708;23.186;2024-03-07T13:12:55;94800.66;;;9.02;63.89
8703;BME280;9002;42.708;23.186;2024-03-07T13:15:22;94805.69;;;9.25;63.01
8703;BME280;9002;42.708;23.186;2024-03-07T13:17:50;94800.44;;;9.37;61.34
8703;BME280;9002;42.708;23.186;2024-03-07T13:20:19;94802.66;;;9.45;60.99
8703;BME280;9002;42.708;23.186;2024-03-07T13:22:52;94798.66;;;9.37;62.29
8703;BME280;9002;42.708;23.186;2024-03-07T13:25:22;94815.09;;;9.65;60.40
8703;BME280;9002;42.708;23.186;2024-03-07T13:27:56;94787.44;;;9.65;60.91
8703;BME280;9002;42.708;23.186;2024-03-07T13:30:25;94761.81;;;9.64;60.21
8703;BME280;9002;42.708;23.186;2024-03-07T13:32:54;94772.94;;;9.64;58.29
8703;BME280;9002;42.708;23.186;2024-03-07T13:35:26;94806.66;;;9.36;57.25
8703;BME280;9002;42.708;23.186;2024-03-07T13:37:53;94825.44;;;9.31;58.21